createdAt,value
2022-09-14T00:01:59.817Z,18.00
2022-09-14T00:04:28.521Z,17.90
2022-09-14T00:06:58.475Z,17.90
2022-09-14T00:09:27.389Z,17.80
2022-09-14T00:11:56.621Z,17.80
2022-09-14T00:14:25.295Z,17.80
2022-09-14T00:16:53.865Z,17.80
2022-09-14T00:19:23.492Z,17.70
2022-09-14T00:21:52.810Z,17.70
2022-09-14T00:24:24.093Z,17.60
2022-09-14T00:26:52.919Z,17.60
2022-09-14T00:29:21.382Z,17.60
2022-09-14T00:31:49.908Z,17.50
2022-09-14T00:34:19.140Z,17.50
2022-09-14T00:36:48.772Z,17.50
2022-09-14T00:39:18.727Z,17.50
2022-09-14T00:41:50.085Z,17.50
2022-09-14T00:44:37.506Z,17.60
2022-09-14T00:47:06.201Z,17.60
2022-09-14T00:49:35.840Z,17.60
2022-09-14T00:52:09.086Z,17.60
2022-09-14T00:54:38.386Z,17.60
2022-09-14T00:57:08.719Z,17.50
2022-09-14T00:59:38.414Z,17.60
2022-09-14T01:02:09.364Z,17.50
2022-09-14T01:04:37.981Z,17.40
2022-09-14T01:07:09.120Z,17.40
2022-09-14T01:09:43.636Z,17.40
2022-09-14T01:12:18.535Z,17.30
2022-09-14T01:14:50.428Z,17.20
2022-09-14T01:17:21.431Z,17.20
2022-09-14T01:20:13.631Z,17.10
2022-09-14T01:22:44.810Z,17.10
2022-09-14T01:25:19.996Z,17.10
2022-09-14T01:27:51.897Z,17.10
2022-09-14T01:30:41.312Z,17.10
2022-09-14T01:33:13.503Z,17.10
2022-09-14T01:35:44.031Z,17.10
2022-09-14T01:38:15.916Z,17.10
2022-09-14T01:40:46.409Z,17.10
2022-09-14T01:43:19.547Z,17.10
2022-09-14T01:45:49.590Z,17.10
2022-09-14T01:48:19.699Z,17.10
2022-09-14T01:50:50.039Z,17.00
2022-09-14T01:53:20.792Z,17.00
2022-09-14T01:55:51.879Z,17.00
2022-09-14T01:58:42.371Z,16.90
2022-09-14T02:01:14.486Z,16.90
2022-09-14T02:03:46.802Z,16.90
2022-09-14T02:06:18.240Z,16.80
2022-09-14T02:09:05.652Z,16.80
2022-09-14T02:11:34.090Z,16.70
2022-09-14T02:14:23.030Z,16.80
2022-09-14T02:16:51.576Z,16.70
2022-09-14T02:19:23.808Z,16.70
2022-09-14T02:21:52.532Z,16.70
2022-09-14T02:24:21.115Z,16.60
2022-09-14T02:26:51.433Z,16.50
2022-09-14T02:29:20.009Z,16.60
2022-09-14T02:31:56.404Z,16.50
2022-09-14T02:34:27.733Z,16.50
2022-09-14T02:37:02.088Z,16.60
2022-09-14T02:39:36.963Z,16.50
2022-09-14T02:42:10.307Z,16.50
2022-09-14T02:44:43.638Z,16.50
2022-09-14T02:47:16.777Z,16.40
2022-09-14T02:49:49.990Z,16.40
2022-09-14T02:52:19.837Z,16.40
2022-09-14T02:54:51.821Z,16.40
2022-09-14T02:57:20.312Z,16.40
2022-09-14T02:59:48.868Z,16.30
2022-09-14T03:02:19.065Z,16.30
2022-09-14T03:04:47.589Z,16.30
2022-09-14T03:07:16.185Z,16.30
2022-09-14T03:09:44.737Z,16.30
2022-09-14T03:12:13.242Z,16.30
2022-09-14T03:15:00.767Z,16.30
2022-09-14T03:17:30.734Z,16.20
2022-09-14T03:19:59.367Z,16.20
2022-09-14T03:22:27.812Z,16.20
2022-09-14T03:24:56.332Z,16.20
2022-09-14T03:27:43.601Z,16.20
2022-09-14T03:30:12.584Z,16.10
2022-09-14T03:33:01.346Z,16.10
2022-09-14T03:35:30.823Z,16.10
2022-09-14T03:38:00.003Z,16.10
2022-09-14T03:40:28.967Z,16.10
2022-09-14T03:42:57.468Z,16.00
2022-09-14T03:45:26.040Z,16.00
2022-09-14T03:47:54.526Z,16.00
2022-09-14T03:50:24.476Z,16.00
2022-09-14T03:52:53.016Z,16.00
2022-09-14T03:55:21.507Z,16.00
2022-09-14T03:57:50.554Z,16.00
2022-09-14T04:00:19.323Z,16.00
2022-09-14T04:02:48.027Z,16.00
2022-09-14T04:05:21.132Z,16.00
2022-09-14T04:07:51.826Z,16.00
2022-09-14T04:10:20.481Z,16.00
2022-09-14T04:12:48.932Z,16.10
2022-09-14T04:15:17.570Z,16.10
2022-09-14T04:17:46.137Z,16.10
2022-09-14T04:20:14.645Z,16.10
2022-09-14T04:22:43.271Z,16.10
2022-09-14T04:25:13.871Z,16.10
2022-09-14T04:27:42.475Z,16.10
2022-09-14T04:30:11.398Z,16.10
2022-09-14T04:32:40.113Z,16.00
2022-09-14T04:35:09.241Z,16.00
2022-09-14T04:37:37.978Z,16.00
2022-09-14T04:40:07.067Z,16.00
2022-09-14T04:42:37.066Z,16.00
2022-09-14T04:45:05.889Z,16.00
2022-09-14T04:47:34.396Z,16.00
2022-09-14T04:50:02.872Z,16.00
2022-09-14T04:52:49.757Z,16.00
2022-09-14T04:55:18.328Z,16.10
2022-09-14T04:57:48.520Z,16.00
2022-09-14T05:00:17.498Z,16.10
2022-09-14T05:02:46.028Z,16.20
2022-09-14T05:05:14.669Z,16.20
2022-09-14T05:07:43.214Z,16.30
2022-09-14T05:10:12.116Z,16.30
2022-09-14T05:12:40.556Z,16.40
2022-09-14T05:15:11.259Z,16.50
2022-09-14T05:17:39.829Z,16.60
2022-09-14T05:20:08.960Z,16.70
2022-09-14T05:22:37.541Z,16.70
2022-09-14T05:25:06.275Z,16.80
2022-09-14T05:27:34.783Z,16.80
2022-09-14T05:30:03.405Z,16.90
2022-09-14T05:32:33.346Z,17.00
2022-09-14T05:35:01.960Z,17.10
2022-09-14T05:37:30.689Z,17.20
2022-09-14T05:39:59.257Z,17.30
2022-09-14T05:42:27.744Z,17.40
2022-09-14T05:44:56.352Z,17.50
2022-09-14T05:47:24.753Z,17.60
2022-09-14T05:49:55.147Z,17.70
2022-09-14T05:52:23.717Z,17.80
2022-09-14T05:54:52.455Z,17.90
2022-09-14T05:57:20.946Z,18.00
2022-09-14T05:59:49.554Z,18.10
2022-09-14T06:02:18.466Z,18.20
2022-09-14T06:04:47.692Z,18.30
2022-09-14T06:07:19.006Z,18.50
2022-09-14T06:09:47.940Z,18.50
2022-09-14T06:12:16.384Z,18.70
2022-09-14T06:14:44.952Z,18.80
2022-09-14T06:17:13.505Z,18.90
2022-09-14T06:19:42.022Z,18.90
2022-09-14T06:22:10.612Z,19.10
2022-09-14T06:24:40.528Z,19.20
2022-09-14T06:27:10.329Z,19.20
2022-09-14T06:29:38.772Z,19.50
2022-09-14T06:32:07.393Z,19.50
2022-09-14T06:34:35.916Z,19.50
2022-09-14T06:37:04.538Z,19.70
2022-09-14T06:39:32.958Z,19.80
2022-09-14T06:42:03.088Z,19.80
2022-09-14T06:44:31.589Z,19.90
2022-09-14T06:47:00.024Z,20.00
2022-09-14T06:49:28.534Z,20.20
2022-09-14T06:51:57.702Z,20.30
2022-09-14T06:54:26.207Z,20.40
2022-09-14T06:56:54.661Z,20.40
2022-09-14T06:59:24.651Z,20.60
2022-09-14T07:01:53.173Z,20.60
2022-09-14T07:04:21.745Z,20.80
2022-09-14T07:06:51.002Z,20.80
2022-09-14T07:09:20.536Z,21.00
2022-09-14T07:11:49.323Z,21.00
2022-09-14T07:14:17.991Z,21.20
2022-09-14T07:16:48.104Z,21.20
2022-09-14T07:19:17.006Z,21.30
2022-09-14T07:21:45.518Z,21.30
2022-09-14T07:24:15.155Z,21.50
2022-09-14T07:26:43.723Z,21.60
2022-09-14T07:29:12.828Z,21.60
2022-09-14T07:31:42.104Z,21.70
2022-09-14T07:34:12.441Z,21.90
2022-09-14T07:36:41.476Z,22.00
2022-09-14T07:39:11.591Z,22.10
2022-09-14T07:41:40.131Z,22.20
2022-09-14T07:44:09.527Z,22.30
2022-09-14T07:46:39.719Z,22.40
2022-09-14T07:49:08.984Z,22.60
2022-09-14T07:51:39.274Z,22.70
2022-09-14T07:54:08.972Z,22.80
2022-09-14T07:56:37.409Z,22.90
2022-09-14T08:01:54.736Z,23.10
2022-09-14T08:04:23.554Z,23.30
2022-09-14T08:06:53.380Z,23.40
2022-09-14T08:09:21.809Z,23.50
2022-09-14T08:11:50.343Z,23.60
2022-09-14T08:14:18.756Z,23.80
2022-09-14T08:16:47.119Z,23.70
2022-09-14T08:19:17.328Z,23.80
2022-09-14T08:21:47.505Z,23.90
2022-09-14T08:24:18.618Z,24.00
2022-09-14T08:26:47.557Z,24.10
2022-09-14T08:29:16.244Z,24.20
2022-09-14T08:31:45.978Z,24.30
2022-09-14T08:34:15.273Z,24.40
2022-09-14T08:36:44.210Z,24.60
2022-09-14T08:39:13.320Z,24.70
2022-09-14T08:41:47.433Z,24.80
2022-09-14T08:44:17.880Z,24.90
2022-09-14T08:46:48.685Z,25.00
2022-09-14T08:49:20.698Z,25.10
2022-09-14T08:51:49.600Z,25.20
2022-09-14T08:54:18.017Z,25.30
2022-09-14T08:56:50.608Z,25.40
2022-09-14T08:59:25.113Z,25.60
2022-09-14T09:01:58.945Z,25.60
2022-09-14T09:04:34.374Z,25.80
2022-09-14T09:07:04.665Z,25.90
2022-09-14T09:09:39.588Z,26.00
2022-09-14T09:12:13.684Z,26.10
2022-09-14T09:14:44.468Z,26.20
2022-09-14T09:17:15.208Z,26.30
2022-09-14T09:19:50.925Z,26.50
2022-09-14T09:22:20.967Z,26.50
2022-09-14T09:24:52.169Z,26.70
2022-09-14T09:27:22.272Z,26.70
2022-09-14T09:29:50.830Z,26.80
2022-09-14T09:32:20.755Z,26.90
2022-09-14T09:35:08.158Z,27.00
2022-09-14T09:37:56.064Z,27.20
2022-09-14T09:40:28.081Z,27.30
2022-09-14T09:43:28.982Z,27.40
2022-09-14T09:46:08.540Z,27.60
2022-09-14T09:48:42.089Z,27.70
2022-09-14T09:51:12.512Z,27.80
2022-09-14T09:53:47.932Z,28.00
2022-09-14T09:56:21.083Z,28.10
2022-09-14T09:58:52.223Z,28.20
2022-09-14T10:01:22.028Z,28.30
2022-09-14T10:04:02.997Z,28.40
2022-09-14T10:06:32.115Z,28.50
2022-09-14T10:09:00.601Z,28.70
2022-09-14T10:11:31.134Z,28.80
2022-09-14T10:14:01.497Z,29.00
2022-09-14T10:16:34.368Z,29.20
2022-09-14T10:19:03.926Z,29.40
2022-09-14T10:21:32.703Z,29.70
2022-09-14T10:24:06.265Z,30.00
2022-09-14T10:26:38.353Z,30.30
2022-09-14T10:29:25.290Z,30.60
2022-09-14T10:31:57.638Z,31.00
2022-09-14T10:34:26.216Z,31.50
2022-09-14T10:36:56.972Z,31.80
2022-09-14T10:39:29.288Z,32.10
2022-09-14T10:42:03.128Z,32.50
2022-09-14T10:44:41.640Z,32.80
2022-09-14T10:47:25.284Z,32.90
2022-09-14T10:50:00.922Z,33.10
2022-09-14T10:52:35.431Z,33.50
2022-09-14T10:55:15.605Z,33.80
2022-09-14T10:57:48.140Z,34.00
2022-09-14T11:00:18.860Z,34.30
2022-09-14T11:02:55.601Z,34.60
2022-09-14T11:05:25.621Z,34.80
2022-09-14T11:07:58.682Z,34.90
2022-09-14T11:10:29.777Z,35.10
2022-09-14T11:13:10.647Z,35.30
2022-09-14T11:15:43.584Z,35.40
2022-09-14T11:18:22.622Z,35.50
2022-09-14T11:20:56.553Z,35.40
2022-09-14T11:23:29.323Z,35.40
2022-09-14T11:25:59.373Z,35.40
2022-09-14T11:28:49.704Z,35.40
2022-09-14T11:31:22.284Z,35.40
2022-09-14T11:33:55.312Z,35.30
2022-09-14T11:36:24.841Z,35.40
2022-09-14T11:38:56.464Z,35.30
2022-09-14T11:41:28.101Z,35.00
2022-09-14T11:43:58.965Z,34.70
2022-09-14T11:46:31.779Z,34.20
2022-09-14T11:49:06.167Z,33.90
2022-09-14T11:51:38.171Z,33.80
2022-09-14T11:54:11.371Z,33.80
2022-09-14T11:56:40.408Z,33.70
2022-09-14T11:59:08.871Z,33.40
2022-09-14T12:01:37.936Z,33.20
2022-09-14T12:04:09.700Z,33.00
2022-09-14T12:06:57.285Z,32.90
2022-09-14T12:09:53.805Z,32.70
2022-09-14T12:12:40.892Z,32.50
2022-09-14T12:15:22.160Z,32.40
2022-09-14T12:17:51.299Z,32.40
2022-09-14T12:20:38.485Z,32.20
2022-09-14T12:23:16.926Z,32.00
2022-09-14T12:25:55.090Z,31.90
2022-09-14T12:28:30.987Z,31.80
2022-09-14T12:31:11.088Z,31.70
2022-09-14T12:33:43.970Z,31.50
2022-09-14T12:36:34.308Z,31.30
2022-09-14T12:39:21.273Z,31.00
2022-09-14T12:42:00.022Z,30.80
2022-09-14T12:44:38.624Z,30.70
2022-09-14T12:47:25.717Z,30.60
2022-09-14T12:49:54.922Z,30.40
2022-09-14T12:52:37.624Z,30.20
2022-09-14T12:55:12.654Z,30.00
2022-09-14T12:57:48.113Z,29.90
2022-09-14T13:00:18.820Z,29.90
2022-09-14T13:03:02.796Z,29.80
2022-09-14T13:05:32.049Z,29.80
2022-09-14T13:08:02.137Z,29.80
2022-09-14T13:10:32.263Z,29.80
2022-09-14T13:13:01.623Z,29.80
2022-09-14T13:15:31.723Z,29.80
2022-09-14T13:18:01.036Z,30.00
2022-09-14T13:20:30.214Z,30.10
2022-09-14T13:22:58.992Z,30.10
2022-09-14T13:25:32.749Z,30.20
2022-09-14T13:28:02.750Z,30.20
2022-09-14T13:30:32.504Z,30.30
2022-09-14T13:33:01.401Z,30.20
2022-09-14T13:35:31.821Z,30.20
2022-09-14T13:38:02.106Z,30.20
2022-09-14T13:40:32.162Z,30.00
2022-09-14T13:43:01.116Z,29.90
2022-09-14T13:45:29.842Z,29.90
2022-09-14T13:47:58.515Z,29.80
2022-09-14T13:50:27.389Z,29.70
2022-09-14T13:53:04.381Z,29.60
2022-09-14T13:55:45.399Z,29.50
2022-09-14T13:58:15.627Z,29.50
2022-09-14T14:01:02.581Z,29.50
2022-09-14T14:03:33.375Z,29.40
2022-09-14T14:06:04.032Z,29.30
2022-09-14T14:08:34.513Z,29.10
2022-09-14T14:11:06.108Z,28.90
2022-09-14T14:13:35.393Z,28.80
2022-09-14T14:16:20.818Z,28.80
2022-09-14T14:18:53.108Z,28.60
2022-09-14T14:21:31.941Z,28.50
2022-09-14T14:24:21.327Z,28.40
2022-09-14T14:26:52.059Z,28.30
2022-09-14T14:29:20.853Z,28.30
2022-09-14T14:31:49.410Z,28.20
2022-09-14T14:34:22.482Z,28.20
2022-09-14T14:36:51.326Z,28.10
2022-09-14T14:39:22.751Z,28.00
2022-09-14T14:41:53.004Z,27.90
2022-09-14T14:44:22.136Z,27.90
2022-09-14T14:46:50.698Z,27.90
2022-09-14T14:49:20.548Z,27.80
2022-09-14T14:52:07.764Z,27.70
2022-09-14T14:54:36.320Z,27.70
2022-09-14T14:57:06.441Z,27.60
2022-09-14T14:59:35.097Z,27.50
2022-09-14T15:02:05.076Z,27.40
2022-09-14T15:04:34.062Z,27.40
2022-09-14T15:07:02.554Z,27.30
2022-09-14T15:09:32.268Z,27.20
2022-09-14T15:12:20.972Z,27.20
2022-09-14T15:14:49.511Z,27.10
2022-09-14T15:17:19.181Z,27.10
2022-09-14T15:19:47.857Z,27.00
2022-09-14T15:22:16.345Z,26.90
2022-09-14T15:24:45.020Z,26.80
2022-09-14T15:27:13.512Z,26.70
2022-09-14T15:29:43.347Z,26.70
2022-09-14T15:32:11.926Z,26.60
2022-09-14T15:34:41.238Z,26.50
2022-09-14T15:37:10.672Z,26.40
2022-09-14T15:39:39.613Z,26.30
2022-09-14T15:42:08.356Z,26.20
2022-09-14T15:44:36.794Z,26.10
2022-09-14T15:47:07.166Z,26.00
2022-09-14T15:49:35.680Z,25.90
2022-09-14T15:52:04.461Z,25.80
2022-09-14T15:54:34.800Z,25.60
2022-09-14T15:57:03.715Z,25.50
2022-09-14T15:59:32.199Z,25.40
2022-09-14T16:02:00.827Z,25.30
2022-09-14T16:04:35.998Z,25.20
2022-09-14T16:07:10.530Z,25.10
2022-09-14T16:09:39.722Z,25.00
2022-09-14T16:12:08.665Z,24.90
2022-09-14T16:14:37.324Z,24.80
2022-09-14T16:17:08.526Z,24.70
2022-09-14T16:19:38.697Z,24.70
2022-09-14T16:22:07.342Z,24.60
2022-09-14T16:24:35.774Z,24.50
2022-09-14T16:27:04.254Z,24.40
2022-09-14T16:29:32.797Z,24.30
2022-09-14T16:32:02.896Z,24.30
2022-09-14T16:34:31.714Z,24.20
2022-09-14T16:37:01.829Z,24.10
2022-09-14T16:39:49.555Z,24.10
2022-09-14T16:42:18.252Z,24.00
2022-09-14T16:44:46.889Z,23.90
2022-09-14T16:47:15.579Z,23.80
2022-09-14T16:49:44.082Z,23.80
2022-09-14T16:52:14.024Z,23.60
2022-09-14T16:54:42.635Z,23.60
2022-09-14T16:57:11.158Z,23.50
2022-09-14T16:59:39.707Z,23.60
2022-09-14T17:02:11.040Z,23.40
2022-09-14T17:04:39.709Z,23.30
2022-09-14T17:07:08.162Z,23.30
2022-09-14T17:09:38.237Z,23.10
2022-09-14T17:12:07.021Z,23.20
2022-09-14T17:14:35.684Z,23.10
2022-09-14T17:17:04.400Z,23.00
2022-09-14T17:19:51.308Z,23.00
2022-09-14T17:22:19.901Z,22.90
2022-09-14T17:24:49.971Z,22.90
2022-09-14T17:27:19.033Z,22.80
2022-09-14T17:29:47.509Z,22.80
2022-09-14T17:32:15.983Z,22.70
2022-09-14T17:34:44.759Z,22.70
2022-09-14T17:37:13.289Z,22.70
2022-09-14T17:39:41.813Z,22.60
2022-09-14T17:42:11.914Z,22.60
2022-09-14T17:44:41.107Z,22.60
2022-09-14T17:47:10.131Z,22.50
2022-09-14T17:49:38.701Z,22.50
2022-09-14T17:52:18.178Z,22.50
2022-09-14T17:54:46.993Z,22.40
2022-09-14T17:57:16.981Z,22.40
2022-09-14T17:59:45.776Z,22.30
2022-09-14T18:02:14.275Z,22.30
2022-09-14T18:04:46.606Z,22.20
2022-09-14T18:07:18.284Z,22.20
2022-09-14T18:09:46.783Z,22.10
2022-09-14T18:12:18.224Z,22.10
2022-09-14T18:14:46.803Z,22.00
2022-09-14T18:17:15.341Z,21.90
2022-09-14T18:19:44.171Z,21.90
2022-09-14T18:22:12.783Z,21.80
2022-09-14T18:24:41.242Z,21.70
2022-09-14T18:27:10.265Z,21.70
2022-09-14T18:29:40.278Z,21.60
2022-09-14T18:32:08.880Z,21.50
2022-09-14T18:34:37.266Z,21.50
2022-09-14T18:37:06.026Z,21.30
2022-09-14T18:39:34.648Z,21.30
2022-09-14T18:42:03.278Z,21.10
2022-09-14T18:44:31.865Z,21.00
2022-09-14T18:47:01.978Z,20.90
2022-09-14T18:49:30.461Z,20.80
2022-09-14T18:51:59.581Z,20.80
2022-09-14T18:54:28.352Z,20.60
2022-09-14T18:56:57.052Z,20.50
2022-09-14T18:59:25.717Z,20.40
2022-09-14T19:01:54.375Z,20.30
2022-09-14T19:04:24.391Z,20.30
2022-09-14T19:06:53.438Z,20.20
2022-09-14T19:09:22.105Z,20.20
2022-09-14T19:11:53.388Z,20.00
2022-09-14T19:14:22.283Z,20.00
2022-09-14T19:16:51.670Z,20.00
2022-09-14T19:19:20.217Z,19.90
2022-09-14T19:21:50.215Z,19.80
2022-09-14T19:24:19.204Z,19.70
2022-09-14T19:26:48.457Z,19.70
2022-09-14T19:29:19.520Z,19.60
2022-09-14T19:31:51.197Z,19.50
2022-09-14T19:34:20.195Z,19.40
2022-09-14T19:36:50.703Z,19.30
2022-09-14T19:39:19.445Z,19.30
2022-09-14T19:41:48.077Z,19.20
2022-09-14T19:44:17.014Z,19.20
2022-09-14T19:46:45.896Z,19.10
2022-09-14T19:49:15.544Z,19.10
2022-09-14T19:51:44.566Z,19.10
2022-09-14T19:54:14.631Z,19.00
2022-09-14T19:56:43.450Z,19.10
2022-09-14T19:59:38.887Z,19.00
2022-09-14T20:02:19.142Z,18.90
2022-09-14T20:04:53.901Z,18.90
2022-09-14T20:07:27.746Z,18.80
2022-09-14T20:09:57.921Z,18.70
2022-09-14T20:12:46.622Z,18.70
2022-09-14T20:15:24.765Z,18.60
2022-09-14T20:17:59.201Z,18.50
2022-09-14T20:20:28.652Z,18.50
2022-09-14T20:22:57.239Z,18.40
2022-09-14T20:25:27.344Z,18.40
2022-09-14T20:27:56.009Z,18.40
2022-09-14T20:30:25.812Z,18.30
2022-09-14T20:32:54.347Z,18.30
2022-09-14T20:35:23.047Z,18.30
2022-09-14T20:37:51.504Z,18.30
2022-09-14T20:40:20.132Z,18.10
2022-09-14T20:42:50.450Z,18.20
2022-09-14T20:45:19.376Z,18.10
2022-09-14T20:47:48.161Z,18.10
2022-09-14T20:50:17.894Z,18.10
2022-09-14T20:52:46.847Z,18.10
2022-09-14T20:55:15.823Z,18.00
2022-09-14T20:57:44.431Z,17.90
2022-09-14T21:00:15.405Z,18.00
2022-09-14T21:02:44.084Z,17.90
2022-09-14T21:05:12.893Z,17.90
2022-09-14T21:07:41.571Z,17.90
2022-09-14T21:10:10.338Z,17.80
2022-09-14T21:12:38.798Z,17.80
2022-09-14T21:15:07.595Z,17.80
2022-09-14T21:17:37.615Z,17.70
2022-09-14T21:20:06.847Z,17.70
2022-09-14T21:22:35.466Z,17.60
2022-09-14T21:25:03.948Z,17.70
2022-09-14T21:27:32.856Z,17.60
2022-09-14T21:30:01.482Z,17.60
2022-09-14T21:32:29.929Z,17.70
2022-09-14T21:35:00.326Z,17.60
2022-09-14T21:37:30.167Z,17.60
2022-09-14T21:39:58.879Z,17.60
2022-09-14T21:42:27.418Z,17.60
2022-09-14T21:44:55.900Z,17.50
2022-09-14T21:47:24.499Z,17.50
2022-09-14T21:49:52.953Z,17.50
2022-09-14T21:52:22.801Z,17.40
2022-09-14T21:54:51.301Z,17.40
2022-09-14T21:57:19.730Z,17.40
2022-09-14T21:59:48.270Z,17.40
2022-09-14T22:02:16.966Z,17.40
2022-09-14T22:04:45.458Z,17.40
2022-09-14T22:07:14.008Z,17.30
2022-09-14T22:09:44.193Z,17.30
2022-09-14T22:12:31.231Z,17.30
2022-09-14T22:15:00.056Z,17.30
2022-09-14T22:17:29.185Z,17.20
2022-09-14T22:19:57.699Z,17.20
2022-09-14T22:22:26.350Z,17.20
2022-09-14T22:24:56.224Z,17.20
2022-09-14T22:27:24.668Z,17.20
2022-09-14T22:29:53.442Z,17.20
2022-09-14T22:32:22.839Z,17.20
2022-09-14T22:34:51.932Z,17.10
2022-09-14T22:37:20.524Z,17.10
2022-09-14T22:39:49.096Z,17.00
2022-09-14T22:42:19.078Z,17.00
2022-09-14T22:44:47.597Z,17.00
2022-09-14T22:47:34.712Z,17.00
2022-09-14T22:50:03.260Z,17.00
2022-09-14T22:52:31.738Z,17.00
2022-09-14T22:55:00.194Z,16.90
2022-09-14T22:57:30.117Z,17.00
2022-09-14T22:59:58.774Z,16.90
2022-09-14T23:02:27.369Z,16.90
2022-09-14T23:04:56.346Z,16.90
2022-09-14T23:07:25.340Z,17.00
2022-09-14T23:09:53.830Z,16.90
2022-09-14T23:12:22.281Z,16.90
2022-09-14T23:14:52.267Z,16.90
2022-09-14T23:17:20.957Z,16.90
2022-09-14T23:19:49.457Z,16.90
2022-09-14T23:22:18.407Z,16.90
2022-09-14T23:24:47.126Z,16.90
2022-09-14T23:27:15.632Z,16.90
2022-09-14T23:29:44.279Z,16.90
2022-09-14T23:32:14.206Z,16.90
2022-09-14T23:34:42.790Z,16.90
2022-09-14T23:37:11.699Z,16.90
2022-09-14T23:39:40.160Z,16.90
2022-09-14T23:42:09.670Z,16.90
2022-09-14T23:44:38.179Z,17.00
2022-09-14T23:47:07.058Z,16.90
2022-09-14T23:49:37.008Z,16.80
2022-09-14T23:52:05.657Z,16.80
2022-09-14T23:54:34.098Z,16.70
2022-09-14T23:57:02.584Z,16.70
2022-09-14T23:59:49.653Z,16.60
